Flight Number: AVA1560 Duration: 2:45
Departure: Barcelona airport (LEBL) at 17:45 Distance: 1176.01 Nm
Arrival: Las Palmas de Gran Canaria (GCLP) at 20:30 Equipment: B757-200

Weather Information
Barcelona / Aeropuerto, Spain (LEBL) 41-17N 002-04E 6M Apr 14, 2024 - 11:00 PM EDT / 2024.04.15 0300 UTC
Wind: from the W (280 degrees) at 6 MPH (5 KT):0
Visibility: greater than 7 mile(s):0 Temperature: 59 F (15 C) Dew Point: 41 F (5 C) Relative Humidity: 51% Pressure (altimeter): 30.06 in. Hg (1018 hPa)
ob: LEBL 150300Z 28005KT CAVOK 15/05 Q1018 NOSIG cycle: 3
Sunrise: 05:13 Sunset: 18:29 (UTC)

Gran Canaria - Canary Islands, Spain (GCLP) 27-56N 015-23W 47M Apr 14, 2024 - 11:00 PM EDT / 2024.04.15 0300 UTC
Wind: from the NNE (020 degrees) at 13 MPH (11 KT):0
Visibility: greater than 7 mile(s):0 Temperature: 66 F (19 C) Dew Point: 53 F (12 C) Relative Humidity: 63% Pressure (altimeter): 29.97 in. Hg (1015 hPa)
ob: GCLP 150300Z 02011KT CAVOK 19/12 Q1015 NOSIG cycle: 3
Sunrise: 06:38 Sunset: 19:24 (UTC)

TAF:2024/04/15 03:44 TAF GCLP 150200Z 1503/1603 02011KT CAVOK TX28/1514Z TN19/1506Z= TAF KHST 150300Z 1503/1609 VRB06KT 9999 SCT025 QNH3005INS BECMG 1513/1514 08012G18KT 9999 FEW025 QNH3007INS BECMG 1523/1524 08008KT 9999 FEW025 SCT040 QNH3006INS TX27/1519Z TN21/1511Z

This route has never been flown.

Route map